Terminal Aerodrome Forecast
Issued by NWS

Home | Current Version | Previous Version | Text Only | Print | Product List | Glossary On
Versions: 1 2 3 4 5 6 7 8 9 10 11 12 13 14 15 16 17 18 19 20 21 22 23 24
638
FTUS46 KSEW 282334
TAFSEA
TAF
KSEA 282334Z 2900/3006 23006KT P6SM OVC050
      TEMPO 2902/2906 01005KT
     FM290600 15005KT P6SM SCT040 SCT060
     FM291000 20006KT P6SM BKN015 OVC025
     FM291400 17007KT P6SM -SHRA SCT008 OVC015
     FM291800 04005KT P6SM -SHRA SCT015 BKN025
     FM292100 35005KT P6SM SCT035 BKN050
     FM300300 02007KT P6SM SCT050=

USA.gov is the U.S. government's official web portal to all federal, state and local government web resources and services.